sensor_id;sensor_type;location;lat;lon;timestamp;pressure;altitude;pressure_sealevel;temperature;humidity
69173;BME280;56280;49.662;8.408;2023-01-19T00:02:10;99663.50;;;-0.11;73.46
69173;BME280;56280;49.662;8.408;2023-01-19T00:04:35;99656.59;;;-0.12;73.48
69173;BME280;56280;49.662;8.408;2023-01-19T00:07:00;99648.47;;;-0.06;72.95
69173;BME280;56280;49.662;8.408;2023-01-19T00:09:27;99673.28;;;-0.14;73.51
69173;BME280;56280;49.662;8.408;2023-01-19T00:11:57;99657.81;;;-0.37;74.59
69173;BME280;56280;49.662;8.408;2023-01-19T00:14:22;99658.22;;;-0.09;73.92
69173;BME280;56280;49.662;8.408;2023-01-19T00:16:48;99642.78;;;-0.14;73.94
69173;BME280;56280;49.662;8.408;2023-01-19T00:19:13;99682.31;;;-0.04;74.56
69173;BME280;56280;49.662;8.408;2023-01-19T00:21:38;99671.81;;;0.15;73.64
69173;BME280;56280;49.662;8.408;2023-01-19T00:24:04;99662.19;;;-0.02;73.52
69173;BME280;56280;49.662;8.408;2023-01-19T00:26:29;99668.03;;;0.03;73.82
69173;BME280;56280;49.662;8.408;2023-01-19T00:28:55;99675.69;;;0.24;73.75
69173;BME280;56280;49.662;8.408;2023-01-19T00:31:20;99654.75;;;0.08;73.60
69173;BME280;56280;49.662;8.408;2023-01-19T00:33:45;99681.00;;;0.05;74.76
69173;BME280;56280;49.662;8.408;2023-01-19T00:36:13;99685.84;;;0.30;73.84
69173;BME280;56280;49.662;8.408;2023-01-19T00:38:38;99666.72;;;0.29;73.32
69173;BME280;56280;49.662;8.408;2023-01-19T00:41:04;99655.44;;;0.11;73.45
69173;BME280;56280;49.662;8.408;2023-01-19T00:43:29;99692.91;;;0.45;73.59
69173;BME280;56280;49.662;8.408;2023-01-19T00:45:54;99663.28;;;0.45;72.21
69173;BME280;56280;49.662;8.408;2023-01-19T00:48:20;99701.53;;;0.63;72.54
69173;BME280;56280;49.662;8.408;2023-01-19T00:50:46;99698.16;;;0.61;72.15
69173;BME280;56280;49.662;8.408;2023-01-19T00:53:11;99714.16;;;0.55;72.19
69173;BME280;56280;49.662;8.408;2023-01-19T00:55:37;99709.88;;;0.36;72.97
69173;BME280;56280;49.662;8.408;2023-01-19T00:58:02;99716.25;;;0.48;73.18
69173;BME280;56280;49.662;8.408;2023-01-19T01:00:27;99708.56;;;0.45;72.72
69173;BME280;56280;49.662;8.408;2023-01-19T01:02:53;99722.31;;;0.49;73.12
69173;BME280;56280;49.662;8.408;2023-01-19T01:05:20;99704.13;;;0.30;73.60
69173;BME280;56280;49.662;8.408;2023-01-19T01:07:46;99729.72;;;0.23;74.15
69173;BME280;56280;49.662;8.408;2023-01-19T01:12:39;99716.47;;;-0.26;76.20
69173;BME280;56280;49.662;8.408;2023-01-19T01:15:06;99721.63;;;-0.25;76.16
69173;BME280;56280;49.662;8.408;2023-01-19T01:17:32;99728.00;;;-0.30;76.56
69173;BME280;56280;49.662;8.408;2023-01-19T01:19:57;99701.09;;;-0.32;76.76
69173;BME280;56280;49.662;8.408;2023-01-19T01:22:23;99720.97;;;-0.11;75.89
69173;BME280;56280;49.662;8.408;2023-01-19T01:24:48;99704.81;;;-0.19;75.59
69173;BME280;56280;49.662;8.408;2023-01-19T01:27:13;99740.78;;;0.11;75.26
69173;BME280;56280;49.662;8.408;2023-01-19T01:29:39;99730.41;;;0.09;75.08
69173;BME280;56280;49.662;8.408;2023-01-19T01:32:06;99731.56;;;0.04;75.92
69173;BME280;56280;49.662;8.408;2023-01-19T01:34:32;99730.31;;;-0.07;75.87
69173;BME280;56280;49.662;8.408;2023-01-19T01:36:57;99726.88;;;-0.07;76.19
69173;BME280;56280;49.662;8.408;2023-01-19T01:39:22;99728.34;;;-0.02;76.00
69173;BME280;56280;49.662;8.408;2023-01-19T01:41:48;99710.81;;;0.01;75.39
69173;BME280;56280;49.662;8.408;2023-01-19T01:44:46;99726.34;;;0.04;75.27
69173;BME280;56280;49.662;8.408;2023-01-19T01:47:17;99717.50;;;0.06;75.48
69173;BME280;56280;49.662;8.408;2023-01-19T01:49:46;99729.94;;;0.18;74.66
69173;BME280;56280;49.662;8.408;2023-01-19T01:52:12;99703.66;;;-0.13;75.59
69173;BME280;56280;49.662;8.408;2023-01-19T01:54:38;99700.97;;;-0.29;76.14
69173;BME280;56280;49.662;8.408;2023-01-19T01:57:05;99712.59;;;0.00;75.19
69173;BME280;56280;49.662;8.408;2023-01-19T01:59:41;99711.88;;;-0.04;75.07
69173;BME280;56280;49.662;8.408;2023-01-19T02:02:20;99718.50;;;-0.14;76.23
69173;BME280;56280;49.662;8.408;2023-01-19T02:08:02;99698.41;;;-0.31;76.93
69173;BME280;56280;49.662;8.408;2023-01-19T02:10:46;99707.50;;;-0.21;76.56
69173;BME280;56280;49.662;8.408;2023-01-19T02:13:33;99712.97;;;-0.08;76.20
69173;BME280;56280;49.662;8.408;2023-01-19T02:16:02;99735.47;;;-0.05;76.34
69173;BME280;56280;49.662;8.408;2023-01-19T02:18:30;99706.78;;;-0.24;76.35
69173;BME280;56280;49.662;8.408;2023-01-19T02:21:04;99729.34;;;-0.41;77.29
69173;BME280;56280;49.662;8.408;2023-01-19T02:23:44;99734.84;;;-0.47;77.92
69173;BME280;56280;49.662;8.408;2023-01-19T02:26:21;99739.16;;;-0.65;78.45
69173;BME280;56280;49.662;8.408;2023-01-19T02:28:50;99730.78;;;-0.52;78.53
69173;BME280;56280;49.662;8.408;2023-01-19T02:31:17;99712.00;;;-0.24;77.38
69173;BME280;56280;49.662;8.408;2023-01-19T02:33:42;99730.16;;;-0.04;76.95
69173;BME280;56280;49.662;8.408;2023-01-19T02:36:09;99731.63;;;-0.15;77.07
69173;BME280;56280;49.662;8.408;2023-01-19T02:38:37;99708.75;;;-0.47;77.40
69173;BME280;56280;49.662;8.408;2023-01-19T02:41:05;99722.13;;;-0.35;77.06
69173;BME280;56280;49.662;8.408;2023-01-19T02:43:32;99743.84;;;0.02;75.86
69173;BME280;56280;49.662;8.408;2023-01-19T02:45:57;99738.16;;;-0.07;75.73
69173;BME280;56280;49.662;8.408;2023-01-19T02:48:24;99736.41;;;0.11;75.17
69173;BME280;56280;49.662;8.408;2023-01-19T02:50:53;99713.97;;;0.07;74.48
69173;BME280;56280;49.662;8.408;2023-01-19T02:59:07;99704.34;;;-0.10;74.79
69173;BME280;56280;49.662;8.408;2023-01-19T03:10:06;99725.78;;;0.14;75.70
69173;BME280;56280;49.662;8.408;2023-01-19T03:12:43;99728.97;;;0.21;75.76
69173;BME280;56280;49.662;8.408;2023-01-19T03:15:25;99708.91;;;0.04;75.95
69173;BME280;56280;49.662;8.408;2023-01-19T03:17:54;99734.19;;;0.21;75.92
69173;BME280;56280;49.662;8.408;2023-01-19T03:20:23;99722.50;;;0.11;75.88
69173;BME280;56280;49.662;8.408;2023-01-19T03:22:53;99711.28;;;-0.09;76.76
69173;BME280;56280;49.662;8.408;2023-01-19T03:25:22;99716.28;;;-0.04;76.57
69173;BME280;56280;49.662;8.408;2023-01-19T03:27:49;99727.09;;;0.06;76.75
69173;BME280;56280;49.662;8.408;2023-01-19T03:30:31;99740.91;;;-0.10;77.43
69173;BME280;56280;49.662;8.408;2023-01-19T03:33:10;99722.63;;;-0.10;77.31
69173;BME280;56280;49.662;8.408;2023-01-19T03:35:42;99707.91;;;-0.11;77.57
69173;BME280;56280;49.662;8.408;2023-01-19T03:38:14;99725.72;;;-0.02;78.03
69173;BME280;56280;49.662;8.408;2023-01-19T03:40:40;99728.41;;;0.14;77.45
69173;BME280;56280;49.662;8.408;2023-01-19T03:43:06;99732.94;;;0.28;77.24
69173;BME280;56280;49.662;8.408;2023-01-19T03:45:33;99714.81;;;0.08;77.33
69173;BME280;56280;49.662;8.408;2023-01-19T03:48:02;99735.25;;;0.34;77.41
69173;BME280;56280;49.662;8.408;2023-01-19T03:50:29;99731.38;;;0.42;76.98
69173;BME280;56280;49.662;8.408;2023-01-19T03:53:06;99697.91;;;0.32;76.62
69173;BME280;56280;49.662;8.408;2023-01-19T03:55:34;99710.91;;;0.34;76.83
69173;BME280;56280;49.662;8.408;2023-01-19T03:58:00;99709.66;;;0.06;77.38
69173;BME280;56280;49.662;8.408;2023-01-19T04:00:25;99711.34;;;-0.10;77.83
69173;BME280;56280;49.662;8.408;2023-01-19T04:02:50;99729.56;;;0.09;78.07
69173;BME280;56280;49.662;8.408;2023-01-19T04:05:16;99700.16;;;-0.12;77.92
69173;BME280;56280;49.662;8.408;2023-01-19T04:07:41;99730.03;;;0.17;77.75
69173;BME280;56280;49.662;8.408;2023-01-19T04:10:07;99740.78;;;0.11;78.56
69173;BME280;56280;49.662;8.408;2023-01-19T04:12:36;99720.03;;;0.25;78.32
69173;BME280;56280;49.662;8.408;2023-01-19T04:15:02;99718.97;;;-0.06;79.02
69173;BME280;56280;49.662;8.408;2023-01-19T04:17:27;99717.09;;;-0.21;79.83
69173;BME280;56280;49.662;8.408;2023-01-19T04:19:52;99708.84;;;-0.31;80.06
69173;BME280;56280;49.662;8.408;2023-01-19T04:22:18;99740.75;;;-0.07;79.84
69173;BME280;56280;49.662;8.408;2023-01-19T04:24:43;99717.19;;;-0.05;79.94
69173;BME280;56280;49.662;8.408;2023-01-19T04:27:09;99732.69;;;-0.02;79.57
69173;BME280;56280;49.662;8.408;2023-01-19T04:29:34;99723.03;;;0.17;79.30
69173;BME280;56280;49.662;8.408;2023-01-19T04:31:59;99741.38;;;0.16;78.49
69173;BME280;56280;49.662;8.408;2023-01-19T04:34:25;99717.59;;;-0.13;79.54
69173;BME280;56280;49.662;8.408;2023-01-19T04:36:50;99749.94;;;0.20;79.04
69173;BME280;56280;49.662;8.408;2023-01-19T04:39:15;99705.06;;;0.11;78.41
69173;BME280;56280;49.662;8.408;2023-01-19T04:41:41;99733.25;;;0.40;77.80
69173;BME280;56280;49.662;8.408;2023-01-19T04:44:06;99727.13;;;0.23;78.02
69173;BME280;56280;49.662;8.408;2023-01-19T04:46:31;99734.88;;;0.25;77.90
69173;BME280;56280;49.662;8.408;2023-01-19T04:48:57;99739.72;;;0.32;77.86
69173;BME280;56280;49.662;8.408;2023-01-19T04:51:22;99717.03;;;0.33;77.63
69173;BME280;56280;49.662;8.408;2023-01-19T04:53:47;99732.84;;;0.47;77.75
69173;BME280;56280;49.662;8.408;2023-01-19T04:56:13;99733.56;;;0.33;78.37
69173;BME280;56280;49.662;8.408;2023-01-19T04:58:38;99712.22;;;0.59;77.43
69173;BME280;56280;49.662;8.408;2023-01-19T05:01:08;99745.31;;;0.76;77.67
69173;BME280;56280;49.662;8.408;2023-01-19T05:03:33;99722.44;;;0.63;77.83
69173;BME280;56280;49.662;8.408;2023-01-19T05:05:59;99725.22;;;0.60;77.73
69173;BME280;56280;49.662;8.408;2023-01-19T05:08:24;99720.91;;;0.59;77.95
69173;BME280;56280;49.662;8.408;2023-01-19T05:10:49;99740.81;;;0.79;78.25
69173;BME280;56280;49.662;8.408;2023-01-19T05:13:14;99709.81;;;0.71;78.13
69173;BME280;56280;49.662;8.408;2023-01-19T05:15:40;99730.19;;;0.82;78.01
69173;BME280;56280;49.662;8.408;2023-01-19T05:18:05;99746.38;;;0.89;77.84
69173;BME280;56280;49.662;8.408;2023-01-19T05:20:30;99727.06;;;0.91;77.31
69173;BME280;56280;49.662;8.408;2023-01-19T05:22:55;99731.66;;;0.70;77.97
69173;BME280;56280;49.662;8.408;2023-01-19T05:25:21;99745.09;;;0.80;77.75
69173;BME280;56280;49.662;8.408;2023-01-19T05:27:46;99751.81;;;0.68;78.20
69173;BME280;56280;49.662;8.408;2023-01-19T05:30:12;99760.47;;;0.86;77.62
69173;BME280;56280;49.662;8.408;2023-01-19T05:32:38;99755.78;;;1.09;76.82
69173;BME280;56280;49.662;8.408;2023-01-19T05:35:04;99759.63;;;1.19;75.96
69173;BME280;56280;49.662;8.408;2023-01-19T05:37:29;99766.75;;;1.16;76.23
69173;BME280;56280;49.662;8.408;2023-01-19T05:39:56;99762.47;;;1.15;75.74
69173;BME280;56280;49.662;8.408;2023-01-19T05:42:22;99741.94;;;1.07;76.02
69173;BME280;56280;49.662;8.408;2023-01-19T05:44:47;99758.41;;;1.25;75.74
69173;BME280;56280;49.662;8.408;2023-01-19T05:47:13;99739.66;;;1.01;75.39
69173;BME280;56280;49.662;8.408;2023-01-19T05:49:38;99764.41;;;1.27;75.18
69173;BME280;56280;49.662;8.408;2023-01-19T05:52:03;99769.56;;;1.28;74.63
69173;BME280;56280;49.662;8.408;2023-01-19T05:54:28;99750.56;;;0.76;75.00
69173;BME280;56280;49.662;8.408;2023-01-19T05:56:54;99760.59;;;0.50;75.87
69173;BME280;56280;49.662;8.408;2023-01-19T05:59:19;99759.06;;;0.63;75.90
69173;BME280;56280;49.662;8.408;2023-01-19T06:01:51;99769.66;;;0.78;75.13
69173;BME280;56280;49.662;8.408;2023-01-19T06:04:16;99780.81;;;0.97;75.49
69173;BME280;56280;49.662;8.408;2023-01-19T06:06:41;99781.50;;;1.01;74.79
69173;BME280;56280;49.662;8.408;2023-01-19T06:09:07;99752.25;;;0.77;75.40
69173;BME280;56280;49.662;8.408;2023-01-19T06:11:32;99781.81;;;0.61;76.33
69173;BME280;56280;49.662;8.408;2023-01-19T06:13:57;99772.56;;;0.71;76.14
69173;BME280;56280;49.662;8.408;2023-01-19T06:16:22;99794.16;;;0.93;76.52
69173;BME280;56280;49.662;8.408;2023-01-19T06:18:48;99795.50;;;1.00;75.91
69173;BME280;56280;49.662;8.408;2023-01-19T06:21:13;99807.59;;;1.02;75.84
69173;BME280;56280;49.662;8.408;2023-01-19T06:23:39;99799.03;;;1.16;75.28
69173;BME280;56280;49.662;8.408;2023-01-19T06:26:04;99757.00;;;0.86;76.00
69173;BME280;56280;49.662;8.408;2023-01-19T06:28:29;99793.06;;;1.13;75.73
69173;BME280;56280;49.662;8.408;2023-01-19T06:30:55;99804.19;;;1.18;75.93
69173;BME280;56280;49.662;8.408;2023-01-19T06:33:22;99810.09;;;1.21;75.87
69173;BME280;56280;49.662;8.408;2023-01-19T06:35:48;99803.31;;;1.17;76.34
69173;BME280;56280;49.662;8.408;2023-01-19T06:38:15;99811.50;;;1.27;76.28
69173;BME280;56280;49.662;8.408;2023-01-19T06:40:42;99802.78;;;1.11;76.69
69173;BME280;56280;49.662;8.408;2023-01-19T06:43:08;99806.50;;;1.06;77.25
69173;BME280;56280;49.662;8.408;2023-01-19T06:45:34;99802.75;;;1.28;76.97
69173;BME280;56280;49.662;8.408;2023-01-19T06:47:59;99803.00;;;1.39;75.46
69173;BME280;56280;49.662;8.408;2023-01-19T06:50:25;99769.72;;;1.09;76.15
69173;BME280;56280;49.662;8.408;2023-01-19T06:52:50;99775.88;;;1.08;76.51
69173;BME280;56280;49.662;8.408;2023-01-19T06:55:16;99814.28;;;1.24;76.96
69173;BME280;56280;49.662;8.408;2023-01-19T06:57:41;99815.75;;;1.30;76.91
69173;BME280;56280;49.662;8.408;2023-01-19T07:00:09;99782.81;;;1.09;76.94
69173;BME280;56280;49.662;8.408;2023-01-19T07:02:36;99837.47;;;1.48;76.43
69173;BME280;56280;49.662;8.408;2023-01-19T07:05:02;99823.31;;;1.52;76.19
69173;BME280;56280;49.662;8.408;2023-01-19T07:07:27;99836.25;;;1.71;76.07
69173;BME280;56280;49.662;8.408;2023-01-19T07:09:53;99840.44;;;1.73;75.93
69173;BME280;56280;49.662;8.408;2023-01-19T07:12:18;99827.34;;;1.57;76.00
69173;BME280;56280;49.662;8.408;2023-01-19T07:14:43;99844.78;;;1.74;75.81
69173;BME280;56280;49.662;8.408;2023-01-19T07:17:09;99846.97;;;1.82;75.17
69173;BME280;56280;49.662;8.408;2023-01-19T07:19:35;99853.44;;;1.59;76.06
69173;BME280;56280;49.662;8.408;2023-01-19T07:22:00;99844.34;;;1.17;77.52
69173;BME280;56280;49.662;8.408;2023-01-19T07:24:26;99849.84;;;1.28;77.90
69173;BME280;56280;49.662;8.408;2023-01-19T07:26:51;99864.75;;;1.59;77.15
69173;BME280;56280;49.662;8.408;2023-01-19T07:29:16;99838.84;;;1.55;76.36
69173;BME280;56280;49.662;8.408;2023-01-19T07:31:42;99839.50;;;1.42;76.47
69173;BME280;56280;49.662;8.408;2023-01-19T07:34:07;99869.34;;;1.38;77.60
69173;BME280;56280;49.662;8.408;2023-01-19T07:36:32;99875.06;;;1.62;77.44
69173;BME280;56280;49.662;8.408;2023-01-19T07:38:58;99841.88;;;1.63;77.34
69173;BME280;56280;49.662;8.408;2023-01-19T07:41:23;99864.50;;;1.64;76.37
69173;BME280;56280;49.662;8.408;2023-01-19T07:43:49;99861.88;;;1.64;76.63
69173;BME280;56280;49.662;8.408;2023-01-19T07:46:15;99855.31;;;1.57;77.07
69173;BME280;56280;49.662;8.408;2023-01-19T07:48:41;99875.31;;;1.42;78.16
69173;BME280;56280;49.662;8.408;2023-01-19T07:51:08;99854.63;;;1.53;77.54
69173;BME280;56280;49.662;8.408;2023-01-19T07:53:36;99850.66;;;1.62;76.91
69173;BME280;56280;49.662;8.408;2023-01-19T07:56:02;99873.56;;;1.74;76.45
69173;BME280;56280;49.662;8.408;2023-01-19T07:58:30;99876.94;;;1.76;76.60
69173;BME280;56280;49.662;8.408;2023-01-19T08:00:55;99845.19;;;1.67;76.94
69173;BME280;56280;49.662;8.408;2023-01-19T08:03:20;99839.09;;;1.66;76.22
69173;BME280;56280;49.662;8.408;2023-01-19T08:05:50;99852.22;;;1.82;75.89
69173;BME280;56280;49.662;8.408;2023-01-19T08:08:16;99860.22;;;1.63;76.51
69173;BME280;56280;49.662;8.408;2023-01-19T08:10:42;99884.63;;;1.79;76.63
69173;BME280;56280;49.662;8.408;2023-01-19T08:13:07;99864.91;;;1.40;78.03
69173;BME280;56280;49.662;8.408;2023-01-19T08:15:33;99884.38;;;1.68;78.33
69173;BME280;56280;49.662;8.408;2023-01-19T08:18:01;99876.50;;;1.52;78.49
69173;BME280;56280;49.662;8.408;2023-01-19T08:20:30;99852.34;;;1.47;78.11
69173;BME280;56280;49.662;8.408;2023-01-19T08:22:55;99887.13;;;1.49;79.41
69173;BME280;56280;49.662;8.408;2023-01-19T08:25:26;99873.31;;;1.63;79.33
69173;BME280;56280;49.662;8.408;2023-01-19T08:27:55;99843.41;;;1.67;78.32
69173;BME280;56280;49.662;8.408;2023-01-19T08:30:21;99851.00;;;1.88;77.70
69173;BME280;56280;49.662;8.408;2023-01-19T08:32:47;99850.16;;;1.71;77.75
69173;BME280;56280;49.662;8.408;2023-01-19T08:35:12;99867.75;;;1.69;78.34
69173;BME280;56280;49.662;8.408;2023-01-19T08:37:37;99851.00;;;1.72;77.84
69173;BME280;56280;49.662;8.408;2023-01-19T08:40:03;99848.09;;;1.44;78.10
69173;BME280;56280;49.662;8.408;2023-01-19T08:42:28;99854.19;;;1.61;78.11
69173;BME280;56280;49.662;8.408;2023-01-19T08:44:54;99880.50;;;1.91;77.41
69173;BME280;56280;49.662;8.408;2023-01-19T08:47:20;99879.41;;;1.79;77.91
69173;BME280;56280;49.662;8.408;2023-01-19T08:49:45;99867.31;;;1.93;78.00
69173;BME280;56280;49.662;8.408;2023-01-19T08:52:10;99848.56;;;1.85;77.73
69173;BME280;56280;49.662;8.408;2023-01-19T08:54:35;99856.41;;;2.00;77.14
69173;BME280;56280;49.662;8.408;2023-01-19T08:57:01;99883.28;;;2.04;77.85
69173;BME280;56280;49.662;8.408;2023-01-19T08:59:26;99883.81;;;1.95;78.40
69173;BME280;56280;49.662;8.408;2023-01-19T09:01:51;99854.56;;;1.87;78.75
69173;BME280;56280;49.662;8.408;2023-01-19T09:04:16;99826.69;;;1.86;77.60
69173;BME280;56280;49.662;8.408;2023-01-19T09:06:42;99872.13;;;2.16;77.85
69173;BME280;56280;49.662;8.408;2023-01-19T09:09:07;99861.16;;;1.94;78.06
69173;BME280;56280;49.662;8.408;2023-01-19T09:11:32;99869.44;;;2.18;78.13
69173;BME280;56280;49.662;8.408;2023-01-19T09:13:59;99869.59;;;2.15;77.53
69173;BME280;56280;49.662;8.408;2023-01-19T09:16:24;99853.13;;;1.97;78.09
69173;BME280;56280;49.662;8.408;2023-01-19T09:18:51;99839.94;;;2.14;77.69
69173;BME280;56280;49.662;8.408;2023-01-19T09:21:16;99853.97;;;2.13;77.53
69173;BME280;56280;49.662;8.408;2023-01-19T09:23:43;99843.31;;;2.00;78.61
69173;BME280;56280;49.662;8.408;2023-01-19T09:26:08;99859.28;;;2.28;77.93
69173;BME280;56280;49.662;8.408;2023-01-19T09:28:34;99868.44;;;2.51;77.58
69173;BME280;56280;49.662;8.408;2023-01-19T09:31:03;99871.00;;;2.67;77.44
69173;BME280;56280;49.662;8.408;2023-01-19T09:33:29;99866.28;;;2.58;76.90
69173;BME280;56280;49.662;8.408;2023-01-19T09:35:54;99865.31;;;2.44;77.52
69173;BME280;56280;49.662;8.408;2023-01-19T09:38:20;99874.81;;;2.77;76.69
69173;BME280;56280;49.662;8.408;2023-01-19T09:40:48;99877.25;;;2.95;76.28
69173;BME280;56280;49.662;8.408;2023-01-19T09:46:02;99872.06;;;2.64;77.41
69173;BME280;56280;49.662;8.408;2023-01-19T09:51:24;99886.72;;;2.83;76.24
69173;BME280;56280;49.662;8.408;2023-01-19T09:56:17;99893.97;;;2.94;77.26
69173;BME280;56280;49.662;8.408;2023-01-19T09:58:44;99896.78;;;3.05;75.62
69173;BME280;56280;49.662;8.408;2023-01-19T10:01:22;99896.84;;;3.34;74.99
69173;BME280;56280;49.662;8.408;2023-01-19T10:04:05;99881.44;;;3.27;75.48
69173;BME280;56280;49.662;8.408;2023-01-19T10:06:33;99887.09;;;3.50;75.40
69173;BME280;56280;49.662;8.408;2023-01-19T10:09:12;99888.09;;;3.47;74.55
69173;BME280;56280;49.662;8.408;2023-01-19T10:11:50;99859.78;;;3.24;75.17
69173;BME280;56280;49.662;8.408;2023-01-19T10:14:40;99914.75;;;3.27;75.71
69173;BME280;56280;49.662;8.408;2023-01-19T10:17:37;99910.06;;;3.61;74.96
69173;BME280;56280;49.662;8.408;2023-01-19T10:20:15;99902.94;;;3.63;74.63
69173;BME280;56280;49.662;8.408;2023-01-19T10:22:46;99897.56;;;3.93;72.77
69173;BME280;56280;49.662;8.408;2023-01-19T10:25:19;99895.28;;;4.01;72.80
69173;BME280;56280;49.662;8.408;2023-01-19T10:27:47;99871.97;;;3.39;74.32
69173;BME280;56280;49.662;8.408;2023-01-19T10:30:18;99865.78;;;3.55;74.09
69173;BME280;56280;49.662;8.408;2023-01-19T10:32:46;99911.16;;;4.00;73.01
69173;BME280;56280;49.662;8.408;2023-01-19T10:35:17;99917.44;;;3.83;73.60
69173;BME280;56280;49.662;8.408;2023-01-19T10:37:47;99877.28;;;3.81;73.65
69173;BME280;56280;49.662;8.408;2023-01-19T10:43:42;99898.25;;;4.24;72.63
69173;BME280;56280;49.662;8.408;2023-01-19T10:46:34;99904.81;;;3.90;72.79
69173;BME280;56280;49.662;8.408;2023-01-19T10:49:02;99798.53;;;3.38;72.75
69173;BME280;56280;49.662;8.408;2023-01-19T10:51:28;99719.63;;;3.26;71.48
69173;BME280;56280;49.662;8.408;2023-01-19T10:54:04;99820.38;;;3.94;71.92
69173;BME280;56280;49.662;8.408;2023-01-19T10:56:37;99780.97;;;3.94;70.59
69173;BME280;56280;49.662;8.408;2023-01-19T10:59:04;99784.84;;;4.16;70.53
69173;BME280;56280;49.662;8.408;2023-01-19T11:01:31;99883.66;;;4.73;70.00
69173;BME280;56280;49.662;8.408;2023-01-19T11:04:18;99853.09;;;4.45;68.64
69173;BME280;56280;49.662;8.408;2023-01-19T11:06:44;99775.06;;;4.18;67.84
69173;BME280;56280;49.662;8.408;2023-01-19T11:09:15;99883.03;;;4.69;67.14
69173;BME280;56280;49.662;8.408;2023-01-19T11:11:52;99891.50;;;5.00;68.10
69173;BME280;56280;49.662;8.408;2023-01-19T11:14:22;99893.00;;;5.04;66.54
69173;BME280;56280;49.662;8.408;2023-01-19T11:16:52;99889.41;;;5.05;66.19
69173;BME280;56280;49.662;8.408;2023-01-19T11:19:23;99889.41;;;5.31;67.35
69173;BME280;56280;49.662;8.408;2023-01-19T11:21:49;99892.03;;;5.31;67.49
69173;BME280;56280;49.662;8.408;2023-01-19T11:24:15;99884.59;;;5.12;67.19
69173;BME280;56280;49.662;8.408;2023-01-19T11:26:45;99882.06;;;5.10;67.56
69173;BME280;56280;49.662;8.408;2023-01-19T11:29:25;99872.47;;;5.09;67.11
69173;BME280;56280;49.662;8.408;2023-01-19T11:31:52;99879.84;;;5.04;66.29
69173;BME280;56280;49.662;8.408;2023-01-19T11:34:31;99883.50;;;5.15;66.52
69173;BME280;56280;49.662;8.408;2023-01-19T11:39:51;99884.13;;;4.92;65.29
69173;BME280;56280;49.662;8.408;2023-01-19T11:42:18;99890.03;;;4.96;64.63
69173;BME280;56280;49.662;8.408;2023-01-19T11:44:48;99884.34;;;4.89;65.05
69173;BME280;56280;49.662;8.408;2023-01-19T11:47:24;99879.81;;;4.51;65.64
69173;BME280;56280;49.662;8.408;2023-01-19T11:50:21;99872.13;;;4.88;65.98
69173;BME280;56280;49.662;8.408;2023-01-19T11:52:55;99880.91;;;4.62;65.76
69173;BME280;56280;49.662;8.408;2023-01-19T11:55:40;99838.63;;;4.37;66.15
69173;BME280;56280;49.662;8.408;2023-01-19T11:58:13;99873.09;;;4.60;65.30
69173;BME280;56280;49.662;8.408;2023-01-19T12:03:17;99882.56;;;5.03;65.37
69173;BME280;56280;49.662;8.408;2023-01-19T12:05:47;99884.69;;;5.10;65.13
69173;BME280;56280;49.662;8.408;2023-01-19T12:08:45;99875.72;;;5.00;64.63
69173;BME280;56280;49.662;8.408;2023-01-19T12:11:16;99880.78;;;5.03;63.64
69173;BME280;56280;49.662;8.408;2023-01-19T12:13:42;99872.56;;;5.08;64.25
69173;BME280;56280;49.662;8.408;2023-01-19T12:16:22;99881.72;;;5.02;63.84
69173;BME280;56280;49.662;8.408;2023-01-19T12:18:53;99882.47;;;5.04;62.79
69173;BME280;56280;49.662;8.408;2023-01-19T12:21:20;99878.59;;;4.70;64.13
69173;BME280;56280;49.662;8.408;2023-01-19T12:24:01;99877.44;;;4.61;63.42
69173;BME280;56280;49.662;8.408;2023-01-19T12:29:14;99858.84;;;4.37;64.66
69173;BME280;56280;49.662;8.408;2023-01-19T12:31:41;99871.31;;;4.20;64.59
69173;BME280;56280;49.662;8.408;2023-01-19T12:36:59;99823.75;;;4.51;63.73
69173;BME280;56280;49.662;8.408;2023-01-19T12:39:25;99847.94;;;4.96;63.15
69173;BME280;56280;49.662;8.408;2023-01-19T12:42:09;99865.91;;;5.02;61.85
69173;BME280;56280;49.662;8.408;2023-01-19T12:44:36;99845.22;;;4.57;63.45
69173;BME280;56280;49.662;8.408;2023-01-19T12:49:51;99862.91;;;4.68;63.24
69173;BME280;56280;49.662;8.408;2023-01-19T12:52:22;99869.50;;;5.01;61.69
69173;BME280;56280;49.662;8.408;2023-01-19T12:57:32;99843.91;;;5.03;62.43
69173;BME280;56280;49.662;8.408;2023-01-19T13:00:00;99874.06;;;5.25;61.44
69173;BME280;56280;49.662;8.408;2023-01-19T13:05:26;99841.81;;;5.21;61.72
69173;BME280;56280;49.662;8.408;2023-01-19T13:10:59;99858.66;;;4.93;63.26
69173;BME280;56280;49.662;8.408;2023-01-19T13:14:31;99863.59;;;4.85;63.83
69173;BME280;56280;49.662;8.408;2023-01-19T13:21:36;99875.59;;;4.49;66.44
69173;BME280;56280;49.662;8.408;2023-01-19T13:24:06;99861.91;;;4.97;66.61
69173;BME280;56280;49.662;8.408;2023-01-19T13:26:33;99862.00;;;4.82;66.03
69173;BME280;56280;49.662;8.408;2023-01-19T13:31:49;99840.03;;;3.89;68.06
69173;BME280;56280;49.662;8.408;2023-01-19T13:34:23;99844.84;;;3.82;69.46
69173;BME280;56280;49.662;8.408;2023-01-19T13:36:51;99832.78;;;4.19;68.61
69173;BME280;56280;49.662;8.408;2023-01-19T13:39:35;99871.06;;;4.11;68.95
69173;BME280;56280;49.662;8.408;2023-01-19T13:42:08;99876.91;;;4.56;69.15
69173;BME280;56280;49.662;8.408;2023-01-19T13:44:44;99858.41;;;4.70;68.47
69173;BME280;56280;49.662;8.408;2023-01-19T13:47:20;99854.31;;;4.79;68.15
69173;BME280;56280;49.662;8.408;2023-01-19T13:49:54;99868.88;;;4.85;67.34
69173;BME280;56280;49.662;8.408;2023-01-19T13:52:22;99866.22;;;4.85;67.64
69173;BME280;56280;49.662;8.408;2023-01-19T13:54:53;99864.84;;;4.92;67.08
69173;BME280;56280;49.662;8.408;2023-01-19T13:57:39;99872.78;;;5.18;67.78
69173;BME280;56280;49.662;8.408;2023-01-19T14:05:13;99879.09;;;5.41;65.39
69173;BME280;56280;49.662;8.408;2023-01-19T14:07:39;99856.75;;;5.34;66.41
69173;BME280;56280;49.662;8.408;2023-01-19T14:10:05;99884.56;;;4.86;66.79
69173;BME280;56280;49.662;8.408;2023-01-19T14:12:33;99873.00;;;4.62;67.31
69173;BME280;56280;49.662;8.408;2023-01-19T14:14:59;99884.97;;;4.80;66.78
69173;BME280;56280;49.662;8.408;2023-01-19T14:17:27;99883.28;;;4.92;65.83
69173;BME280;56280;49.662;8.408;2023-01-19T14:19:57;99892.56;;;4.98;66.03
69173;BME280;56280;49.662;8.408;2023-01-19T14:22:41;99866.47;;;5.07;65.79
69173;BME280;56280;49.662;8.408;2023-01-19T14:31:01;99863.31;;;4.49;65.56